首页
METAR-TAF:

METAR-TAF

机场 :

上海 / 浦东, 中华人民共和国

上海浦东国际机场

纬度: 31-07N, 经度: 121-46E, 海拔: 4米

当前天气观测

该预报发布于23分钟前的22:00 UTC
风速2节,风向多变
温度 12°C
湿度 71%
气压 1016 hPa
能见度10公里或以上
1500米以下无云,无积雨云

METAR: ZSPD 252200Z VRB01MPS CAVOK 12/07 Q1016 NOSIG

时间: 06:23 (22:23 UTC)

预报

该预报发布于7小时和12分钟前的15:11 UTC
预报有效从25日的 18点(UTC)到 26日的 18点(UTC)
风速8节,风向东转东北
能見度: 5000
散云层高于2000英尺
轻雾
成为
从 25日的 22点(UTC)到 25日的 24点(UTC)
风速8节,风向

TAF: ZSPD 251511Z 2518/2618 07004MPS 5000 BR SCT020 TX22/2606Z TN13/2521Z BECMG 2522/2524 10004MPS

超过4000个机场的气象观测和天气预报(METAR&TAF报告)。

可查询的气象台以黄色和红色小点在地图上表示。

将鼠标移到小点上方,可查看气象台名称。

然后点击查看天气观测和预报。

如需切换地图:点击带黑十字的绿色按钮放大地图;点击带横线的绿色按钮缩小地图;或者点击绿色箭头查看邻近地区的地图。


METAR-TAF: